Time;durP1;ratioP1;P1;durP2;ratioP2;P2;SDS_P1;SDS_P2;PMS_P1;PMS_P2;Temp;Humidity;BMP_temperature;BMP_pressure;BME280_temperature;BME280_humidity;BME280_pressure;Samples;Min_cycle;Max_cycle;Signal;HPM_P1;HPM_P2
2023/07/02 00:00:51;;;;;;;16.45;4.90;;;22.70;79.40;;;;;;10448428;28;20091;-38
2023/07/02 00:05:56;;;;;;;8.00;3.30;;;21.30;80.70;;;;;;10476215;28;20052;-39
2023/07/02 00:10:58;;;;;;;18.45;6.30;;;21.30;88.60;;;;;;10441611;28;20047;-39
2023/07/02 00:15:59;;;;;;;16.10;6.10;;;21.50;79.80;;;;;;10440446;28;20128;-38
2023/07/02 00:21:03;;;;;;;9.18;3.50;;;21.00;72.50;;;;;;10449519;28;20169;-32
2023/07/02 00:26:05;;;;;;;10.18;3.85;;;21.80;83.20;;;;;;10453031;28;20069;-32
2023/07/02 00:31:08;;;;;;;18.63;5.68;;;21.90;69.90;;;;;;10430246;28;20434;-34
2023/07/02 00:36:14;;;;;;;16.35;5.40;;;21.10;83.00;;;;;;10463683;28;20055;-32
2023/07/02 00:41:16;;;;;;;14.05;4.72;;;20.90;74.70;;;;;;10464462;28;20064;-33
2023/07/02 00:46:20;;;;;;;23.40;7.82;;;20.90;89.10;;;;;;10453128;28;20791;-32
2023/07/02 00:51:24;;;;;;;16.55;5.10;;;20.60;72.60;;;;;;10447717;28;20045;-32
2023/07/02 00:56:27;;;;;;;15.48;5.40;;;20.10;74.70;;;;;;10447469;28;20171;-33
2023/07/02 01:01:29;;;;;;;17.40;5.30;;;20.50;78.50;;;;;;10451757;28;20132;-31
2023/07/02 01:06:33;;;;;;;;;;;19.90;88.10;;;;;;10450409;28;20057;-29
2023/07/02 01:11:37;;;;;;;21.60;6.47;;;20.30;86.80;;;;;;10439126;28;19968;-36
2023/07/02 01:16:43;;;;;;;11.95;5.18;;;20.20;81.10;;;;;;10440300;28;20134;-40
2023/07/02 01:21:46;;;;;;;15.52;5.45;;;21.40;78.60;;;;;;10443955;28;20057;-35
2023/07/02 01:26:48;;;;;;;12.75;4.80;;;20.20;85.50;;;;;;10426220;28;20196;-31
2023/07/02 01:31:50;;;;;;;;;;;21.70;74.70;;;;;;10442686;28;20063;-31
2023/07/02 01:36:53;;;;;;;17.07;5.53;;;20.90;78.90;;;;;;10444557;28;20445;-32
2023/07/02 01:41:57;;;;;;;27.58;6.90;;;20.00;77.00;;;;;;10443052;28;20459;-33
2023/07/02 01:46:59;;;;;;;24.45;6.60;;;20.20;83.70;;;;;;10440370;28;20081;-40
2023/07/02 01:52:02;;;;;;;17.95;6.78;;;19.70;81.70;;;;;;10434733;28;20091;-32
2023/07/02 01:57:05;;;;;;;19.05;6.25;;;19.60;82.60;;;;;;10436871;28;20060;-34
2023/07/02 02:02:07;;;;;;;19.65;7.30;;;19.90;87.50;;;;;;10446665;28;20045;-34
2023/07/02 02:07:10;;;;;;;14.25;5.53;;;19.40;71.50;;;;;;10445444;28;20136;-32
2023/07/02 02:12:14;;;;;;;16.58;5.53;;;20.20;87.10;;;;;;10453202;28;20650;-32
2023/07/02 02:17:15;;;;;;;23.65;6.95;;;20.70;73.60;;;;;;10435777;28;20041;-32
2023/07/02 02:22:19;;;;;;;25.58;7.50;;;20.40;69.80;;;;;;10439773;28;20076;-34
2023/07/02 02:27:20;;;;;;;17.08;6.40;;;20.30;77.40;;;;;;10445455;28;20048;-35
2023/07/02 02:32:23;;;;;;;23.00;6.38;;;19.80;87.60;;;;;;10455641;28;20043;-32
2023/07/02 02:37:26;;;;;;;23.35;6.72;;;19.40;77.50;;;;;;10451048;28;20447;-33
2023/07/02 02:42:28;;;;;;;25.98;6.95;;;18.70;83.80;;;;;;10441488;28;20040;-32
2023/07/02 02:47:30;;;;;;;16.05;5.93;;;19.80;72.60;;;;;;10446444;28;20485;-34
2023/07/02 02:52:33;;;;;;;;;;;20.20;87.00;;;;;;10456453;28;20045;-33
2023/07/02 03:15:32;;;;;;;18.02;5.82;;;19.10;83.80;;;;;;10596842;27;20224;-33
2023/07/02 03:20:34;;;;;;;18.42;6.32;;;19.30;84.70;;;;;;10600712;27;20079;-33
2023/07/02 03:25:35;;;;;;;15.90;5.60;;;19.40;82.70;;;;;;10604945;27;20070;-34
2023/07/02 03:30:39;;;;;;;30.48;6.40;;;19.50;81.40;;;;;;10608216;27;20508;-32
2023/07/02 03:35:40;;;;;;;14.68;4.85;;;18.20;82.50;;;;;;10601542;27;20560;-34
2023/07/02 03:40:42;;;;;;;17.30;5.53;;;19.00;79.80;;;;;;10602957;27;20059;-32
2023/07/02 03:45:45;;;;;;;22.55;6.00;;;19.10;80.30;;;;;;10604725;27;20071;-32
2023/07/02 03:50:47;;;;;;;20.30;4.82;;;19.00;83.10;;;;;;10605943;27;20138;-32
2023/07/02 03:55:49;;;;;;;16.30;4.75;;;18.90;85.20;;;;;;10621678;27;20052;-35
2023/07/02 04:00:52;;;;;;;18.30;5.20;;;18.50;92.20;;;;;;10610360;27;20484;-34
2023/07/02 04:05:54;;;;;;;13.90;4.95;;;19.50;80.40;;;;;;10604101;27;20487;-33
2023/07/02 04:10:56;;;;;;;19.20;5.78;;;19.90;78.90;;;;;;10605018;27;20044;-32
2023/07/02 04:15:59;;;;;;;17.13;5.10;;;19.20;81.00;;;;;;10618552;27;20126;-34
2023/07/02 04:21:02;;;;;;;17.85;5.55;;;18.70;91.70;;;;;;10601979;27;20103;-33
2023/07/02 04:26:04;;;;;;;15.52;4.32;;;18.70;86.30;;;;;;10577776;27;20131;-33
2023/07/02 04:31:07;;;;;;;12.48;4.82;;;20.30;82.10;;;;;;10580025;27;20082;-31
2023/07/02 04:36:09;;;;;;;19.77;4.97;;;18.90;90.50;;;;;;10590228;27;20071;-31
2023/07/02 04:41:11;;;;;;;19.92;5.35;;;18.40;74.50;;;;;;10570955;27;20139;-32
2023/07/02 04:46:14;;;;;;;14.70;5.65;;;18.70;77.60;;;;;;10576198;27;20040;-33
2023/07/02 04:51:16;;;;;;;20.08;5.38;;;18.20;86.70;;;;;;10581172;27;20050;-34
2023/07/02 04:56:18;;;;;;;22.85;5.43;;;18.30;83.70;;;;;;10575524;27;20081;-38
2023/07/02 05:01:21;;;;;;;9.70;3.80;;;19.30;84.10;;;;;;10575342;27;20155;-36
2023/07/02 05:06:23;;;;;;;13.80;4.75;;;20.10;79.30;;;;;;10568166;27;20116;-33
2023/07/02 05:11:25;;;;;;;10.55;4.68;;;19.40;85.30;;;;;;10578844;27;20146;-35
2023/07/02 05:16:28;;;;;;;13.48;4.57;;;19.60;83.20;;;;;;10568628;27;20079;-34
2023/07/02 05:21:30;;;;;;;14.18;4.47;;;18.90;87.00;;;;;;10575815;27;20067;-31
2023/07/02 05:26:32;;;;;;;8.75;3.72;;;19.30;75.40;;;;;;10579885;27;20166;-32
2023/07/02 05:31:35;;;;;;;13.02;4.55;;;20.10;83.60;;;;;;10590799;27;20131;-32
2023/07/02 05:36:36;;;;;;;22.70;5.80;;;19.60;82.70;;;;;;10570756;27;20039;-32
2023/07/02 05:41:38;;;;;;;15.73;5.20;;;19.50;79.30;;;;;;10579546;27;20040;-32
2023/07/02 05:46:42;;;;;;;9.85;3.95;;;19.90;82.00;;;;;;10559448;27;20043;-32
2023/07/02 05:51:43;;;;;;;14.55;4.72;;;19.80;75.70;;;;;;10577437;27;20051;-34
2023/07/02 05:56:46;;;;;;;16.20;4.85;;;19.10;86.40;;;;;;10574363;27;20138;-34
2023/07/02 06:01:49;;;;;;;12.60;4.60;;;18.40;90.80;;;;;;10565805;27;20094;-34
2023/07/02 06:06:51;;;;;;;19.73;5.25;;;19.10;85.60;;;;;;10571549;27;20067;-35
2023/07/02 06:11:53;;;;;;;26.92;6.22;;;18.90;79.10;;;;;;10567973;27;20043;-36
2023/07/02 06:16:57;;;;;;;20.67;5.57;;;19.00;80.50;;;;;;10566637;28;20051;-34
2023/07/02 06:21:59;;;;;;;20.65;5.50;;;19.10;82.50;;;;;;10570572;27;20039;-36
2023/07/02 06:27:01;;;;;;;19.40;5.05;;;18.20;78.20;;;;;;10574093;27;20464;-38
2023/07/02 06:32:05;;;;;;;22.20;6.22;;;18.90;82.70;;;;;;10567310;27;20054;-36
2023/07/02 06:37:07;;;;;;;11.98;4.15;;;19.40;83.10;;;;;;10547670;27;20627;-35
2023/07/02 06:42:09;;;;;;;16.48;4.95;;;20.10;69.00;;;;;;10554257;27;20040;-34
2023/07/02 06:47:12;;;;;;;19.20;5.53;;;20.80;72.90;;;;;;10561458;27;20047;-34
2023/07/02 06:52:14;;;;;;;14.57;4.93;;;18.90;76.30;;;;;;10560332;27;20146;-32
2023/07/02 06:57:16;;;;;;;11.50;4.60;;;21.00;68.00;;;;;;10571559;27;20047;-31
2023/07/02 07:02:19;;;;;;;15.77;4.00;;;21.40;69.70;;;;;;10572272;27;20125;-32
2023/07/02 07:07:21;;;;;;;15.90;4.47;;;20.40;68.70;;;;;;10559567;27;20233;-34
2023/07/02 07:12:23;;;;;;;16.63;4.00;;;20.60;76.70;;;;;;10546016;28;20754;-31
2023/07/02 07:17:26;;;;;;;19.50;4.47;;;21.50;72.30;;;;;;10558212;28;20158;-33
2023/07/02 07:22:28;;;;;;;25.23;4.63;;;20.30;67.60;;;;;;10557313;28;20479;-36
2023/07/02 07:27:30;;;;;;;14.18;4.25;;;21.00;77.90;;;;;;10572450;28;20043;-33
2023/07/02 07:32:33;;;;;;;18.52;4.50;;;20.20;73.80;;;;;;10551468;28;20052;-38
2023/07/02 07:37:35;;;;;;;13.15;5.13;;;20.00;71.50;;;;;;10551059;28;20047;-32
2023/07/02 07:42:37;;;;;;;30.00;6.15;;;21.10;70.50;;;;;;10571622;28;20229;-32
2023/07/02 07:47:40;;;;;;;17.30;4.47;;;19.10;74.40;;;;;;10558572;28;20054;-33
2023/07/02 07:52:44;;;;;;;16.05;4.70;;;20.00;75.90;;;;;;10575820;28;20132;-33
2023/07/02 07:57:47;;;;;;;12.38;4.57;;;20.90;67.50;;;;;;10582064;28;20051;-37
2023/07/02 08:02:52;;;;;;;15.63;4.47;;;20.00;78.60;;;;;;10583028;27;20043;-33
2023/07/02 08:07:54;;;;;;;15.93;4.88;;;19.90;81.90;;;;;;10573131;27;20052;-33
2023/07/02 08:12:56;;;;;;;20.38;4.85;;;20.80;72.40;;;;;;10581334;27;20142;-33
2023/07/02 08:17:59;;;;;;;15.18;4.85;;;20.00;68.80;;;;;;10576877;27;20044;-34
2023/07/02 08:23:01;;;;;;;14.90;4.43;;;20.40;76.90;;;;;;10577982;27;20411;-30
2023/07/02 08:28:03;;;;;;;17.00;4.45;;;19.40;86.90;;;;;;10573631;27;20128;-34
2023/07/02 08:33:06;;;;;;;9.07;4.22;;;18.90;85.80;;;;;;10579196;27;20058;-34
2023/07/02 08:38:09;;;;;;;12.23;3.60;;;19.50;74.80;;;;;;10597680;27;20142;-35
2023/07/02 08:43:11;;;;;;;17.98;4.53;;;18.80;81.90;;;;;;10580335;27;20040;-36
2023/07/02 08:48:14;;;;;;;14.40;4.25;;;19.00;85.60;;;;;;10572929;27;20088;-34
2023/07/02 08:53:16;;;;;;;12.63;4.05;;;19.60;79.70;;;;;;10578056;27;20091;-34
2023/07/02 08:58:18;;;;;;;11.65;3.30;;;19.00;76.30;;;;;;10572802;27;20043;-37
2023/07/02 09:03:21;;;;;;;14.50;4.13;;;20.30;74.00;;;;;;10560954;27;20154;-36
2023/07/02 09:08:27;;;;;;;10.82;3.85;;;19.40;79.10;;;;;;10572476;27;20058;-34
2023/07/02 09:13:29;;;;;;;8.80;3.25;;;19.70;77.20;;;;;;10572683;27;20128;-35
2023/07/02 09:18:32;;;;;;;14.05;3.63;;;20.70;69.90;;;;;;10561224;27;20063;-33
2023/07/02 09:23:36;;;;;;;10.98;3.30;;;20.40;72.40;;;;;;10563652;27;20097;-32
2023/07/02 09:28:38;;;;;;;16.55;3.75;;;19.90;74.70;;;;;;10564573;27;20045;-33
2023/07/02 09:33:41;;;;;;;7.90;3.30;;;19.40;74.40;;;;;;10574765;27;20525;-33
2023/07/02 09:38:43;;;;;;;12.35;3.58;;;19.20;73.60;;;;;;10569057;27;20093;-36
2023/07/02 09:43:45;;;;;;;13.48;3.83;;;19.80;70.80;;;;;;10561676;27;20130;-33
2023/07/02 09:48:49;;;;;;;10.52;3.15;;;20.60;69.70;;;;;;10560113;27;20044;-33
2023/07/02 09:53:52;;;;;;;16.05;3.97;;;20.20;74.50;;;;;;10564974;27;20082;-32
2023/07/02 09:58:53;;;;;;;10.15;3.22;;;19.70;71.00;;;;;;10560161;27;20040;-32
2023/07/02 10:03:57;;;;;;;16.23;4.05;;;19.60;70.60;;;;;;10571846;27;20067;-33
2023/07/02 10:08:58;;;;;;;12.70;3.95;;;20.10;73.20;;;;;;10572790;27;20077;-32
2023/07/02 10:14:01;;;;;;;11.27;3.40;;;19.80;66.10;;;;;;10555332;27;20504;-39
2023/07/02 10:19:11;;;;;;;12.18;4.35;;;21.20;71.00;;;;;;10575115;27;20093;-33
2023/07/02 10:24:13;;;;;;;13.35;4.60;;;21.20;68.40;;;;;;10575707;27;20071;-37
2023/07/02 10:29:19;;;;;;;14.63;4.30;;;20.50;61.90;;;;;;10550214;27;20047;-33
2023/07/02 10:34:34;;;;;;;14.10;4.28;;;20.80;66.00;;;;;;10566500;27;20083;-35
2023/07/02 10:39:40;;;;;;;13.43;4.22;;;20.30;68.90;;;;;;10550249;27;20436;-37
2023/07/02 10:44:48;;;;;;;36.65;5.47;;;20.20;65.40;;;;;;10562007;27;20040;-37
2023/07/02 10:49:52;;;;;;;9.18;3.50;;;19.70;62.50;;;;;;10556164;27;20488;-34
2023/07/02 10:54:54;;;;;;;14.10;4.22;;;21.50;67.00;;;;;;10571787;27;20403;-33
2023/07/02 11:00:06;;;;;;;8.07;3.97;;;20.40;68.50;;;;;;10574127;27;20058;-33
2023/07/02 11:05:12;;;;;;;13.00;4.28;;;19.90;74.50;;;;;;10572957;28;21063;-34
2023/07/02 11:10:19;;;;;;;13.40;4.18;;;19.90;69.50;;;;;;10581337;27;20451;-39
2023/07/02 11:15:22;;;;;;;12.73;4.38;;;20.60;64.00;;;;;;10575151;28;20177;-35
2023/07/02 11:20:35;;;;;;;16.45;4.75;;;20.00;60.80;;;;;;10571116;28;20093;-33
2023/07/02 11:25:36;;;;;;;13.85;4.72;;;19.90;64.40;;;;;;10572262;28;20517;-34
2023/07/02 11:30:46;;;;;;;10.80;4.05;;;20.60;60.00;;;;;;10564835;28;20068;-35
2023/07/02 11:35:49;;;;;;;16.08;4.22;;;21.00;67.70;;;;;;10567840;27;20048;-35
2023/07/02 11:40:51;;;;;;;15.00;4.35;;;21.00;63.30;;;;;;10590049;27;20047;-37
2023/07/02 11:45:53;;;;;;;11.82;4.80;;;21.80;63.70;;;;;;10595255;27;20124;-33
2023/07/02 11:50:56;;;;;;;14.70;3.38;;;21.50;62.40;;;;;;10580471;27;20078;-33
2023/07/02 11:55:58;;;;;;;10.40;3.60;;;20.80;64.00;;;;;;10575628;27;20134;-33
2023/07/02 12:01:00;;;;;;;11.40;4.25;;;21.30;64.40;;;;;;10580629;27;20147;-34
2023/07/02 12:06:03;;;;;;;12.73;4.30;;;21.30;61.70;;;;;;10584186;27;20043;-33
2023/07/02 12:11:05;;;;;;;13.35;4.85;;;22.00;61.20;;;;;;10588406;27;20046;-35
2023/07/02 12:16:07;;;;;;;14.27;4.55;;;21.10;61.20;;;;;;10579075;27;20086;-34
2023/07/02 12:21:10;;;;;;;13.15;4.43;;;21.50;61.00;;;;;;10577741;27;20510;-31
2023/07/02 12:26:12;;;;;;;17.13;3.78;;;21.10;62.10;;;;;;10565743;27;20149;-36
2023/07/02 12:31:15;;;;;;;11.02;4.13;;;21.90;55.20;;;;;;10572220;27;20100;-34
2023/07/02 12:36:18;;;;;;;9.85;3.90;;;21.80;64.30;;;;;;10575412;27;20104;-34
2023/07/02 12:41:20;;;;;;;11.32;4.57;;;21.80;59.90;;;;;;10572240;27;20046;-34
2023/07/02 12:46:22;;;;;;;11.77;4.03;;;22.20;57.50;;;;;;10578372;27;20150;-35
2023/07/02 12:51:25;;;;;;;12.18;4.85;;;22.50;59.70;;;;;;10573885;27;20046;-36
2023/07/02 12:56:27;;;;;;;12.85;3.80;;;22.20;62.20;;;;;;10572556;27;20054;-35
2023/07/02 13:01:29;;;;;;;11.57;3.78;;;22.50;59.50;;;;;;10576190;27;20476;-39
2023/07/02 13:06:34;;;;;;;9.80;3.97;;;22.30;56.80;;;;;;10576912;27;20067;-39
2023/07/02 13:11:36;;;;;;;14.02;3.92;;;23.60;62.20;;;;;;10567656;27;20480;-37
2023/07/02 13:16:38;;;;;;;13.07;4.25;;;22.20;54.50;;;;;;10569575;27;20449;-34
2023/07/02 13:21:41;;;;;;;6.85;3.15;;;22.10;62.40;;;;;;10579989;27;20565;-35
2023/07/02 13:26:43;;;;;;;13.43;3.80;;;22.60;52.70;;;;;;10573264;27;20108;-34
2023/07/02 13:31:45;;;;;;;12.48;4.05;;;22.40;52.90;;;;;;10574739;27;20071;-34
2023/07/02 13:36:48;;;;;;;6.70;3.53;;;23.50;52.40;;;;;;10567246;27;20138;-34
2023/07/02 13:41:51;;;;;;;6.85;3.28;;;23.40;51.70;;;;;;10576548;27;20043;-34
2023/07/02 13:46:54;;;;;;;6.85;3.40;;;23.10;54.50;;;;;;10583452;27;20055;-38
2023/07/02 13:51:57;;;;;;;8.90;3.83;;;23.90;55.60;;;;;;10583922;27;20051;-40
2023/07/02 13:56:59;;;;;;;8.77;3.72;;;23.80;53.90;;;;;;10567280;27;20043;-40
2023/07/02 14:02:02;;;;;;;;;;;24.30;51.70;;;;;;10573467;27;20043;-36
2023/07/02 14:07:05;;;;;;;11.55;3.35;;;25.00;56.30;;;;;;10569320;27;19919;-39
2023/07/02 14:12:08;;;;;;;4.90;2.85;;;23.90;54.50;;;;;;10571048;27;20147;-36
2023/07/02 14:17:11;;;;;;;9.60;4.20;;;25.10;54.20;;;;;;10566030;27;20053;-40
2023/07/02 14:22:13;;;;;;;8.43;3.80;;;24.90;49.70;;;;;;10571212;27;20488;-39
2023/07/02 14:27:15;;;;;;;7.75;3.55;;;25.50;52.80;;;;;;10561036;27;20377;-34
2023/07/02 14:32:18;;;;;;;8.13;3.20;;;25.80;50.80;;;;;;10569645;27;20075;-37
2023/07/02 14:37:20;;;;;;;9.40;3.58;;;25.80;58.00;;;;;;10562926;27;20093;-37
2023/07/02 14:42:22;;;;;;;10.52;3.97;;;25.30;53.40;;;;;;10578868;27;20078;-32
2023/07/02 14:47:25;;;;;;;7.30;3.45;;;25.30;55.60;;;;;;10578496;27;20101;-35
2023/07/02 14:52:27;;;;;;;10.35;4.28;;;24.60;64.20;;;;;;10574897;27;20104;-35
2023/07/02 14:57:28;;;;;;;;;;;24.20;54.40;;;;;;10574397;27;20039;-34
2023/07/02 15:02:32;;;;;;;9.25;3.38;;;24.10;54.10;;;;;;10568194;27;19923;-36
2023/07/02 15:07:34;;;;;;;6.15;3.30;;;24.30;54.40;;;;;;10562199;27;20056;-34
2023/07/02 15:12:37;;;;;;;10.77;4.15;;;24.50;54.50;;;;;;10574901;28;20067;-34
2023/07/02 15:17:40;;;;;;;13.05;4.72;;;24.60;56.20;;;;;;10570923;28;20055;-34
2023/07/02 15:22:42;;;;;;;12.82;4.30;;;24.50;53.80;;;;;;10558758;28;20117;-34
2023/07/02 15:27:44;;;;;;;11.48;4.88;;;25.20;50.90;;;;;;10565464;28;20059;-35
2023/07/02 15:32:48;;;;;;;15.23;5.00;;;24.30;53.50;;;;;;10559845;28;20075;-34
2023/07/02 15:37:49;;;;;;;9.15;3.72;;;25.00;47.80;;;;;;10560666;28;20783;-35
2023/07/02 15:42:52;;;;;;;;;;;24.80;61.20;;;;;;10563551;28;20043;-34
2023/07/02 15:47:56;;;;;;;15.85;4.57;;;24.70;55.90;;;;;;10563441;28;20031;-36
2023/07/02 15:52:58;;;;;;;12.77;5.00;;;24.20;50.80;;;;;;10578363;28;20075;-40
2023/07/02 15:57:59;;;;;;;;;;;23.60;56.80;;;;;;10589407;28;20143;-36
2023/07/02 16:03:03;;;;;;;12.43;4.57;;;24.00;61.50;;;;;;10563636;28;20023;-34
2023/07/02 16:08:05;;;;;;;18.75;5.40;;;23.00;65.40;;;;;;10578196;28;20102;-34
2023/07/02 16:13:07;;;;;;;19.60;4.35;;;23.50;57.60;;;;;;10569884;28;20045;-36
2023/07/02 16:18:11;;;;;;;14.75;5.13;;;23.30;59.70;;;;;;10568259;28;20074;-34
2023/07/02 16:23:13;;;;;;;15.40;5.38;;;23.10;66.90;;;;;;10571979;27;20075;-35
2023/07/02 16:28:15;;;;;;;13.25;4.75;;;22.20;59.10;;;;;;10562605;27;20102;-34
2023/07/02 16:33:19;;;;;;;18.05;5.13;;;22.90;59.60;;;;;;10575983;27;20105;-37
2023/07/02 16:38:20;;;;;;;14.43;4.60;;;22.50;62.20;;;;;;10575636;27;20163;-35
2023/07/02 16:43:22;;;;;;;15.73;4.72;;;22.60;58.10;;;;;;10568335;28;20486;-40
2023/07/02 16:48:26;;;;;;;17.23;4.97;;;22.50;59.60;;;;;;10570181;27;20118;-34
2023/07/02 16:53:28;;;;;;;25.77;5.22;;;22.50;69.80;;;;;;10558957;27;20074;-35
2023/07/02 16:58:31;;;;;;;17.13;4.95;;;21.80;69.90;;;;;;10576236;27;20040;-34
2023/07/02 17:03:35;;;;;;;17.20;5.03;;;21.90;60.20;;;;;;10571728;27;20075;-39
2023/07/02 17:08:38;;;;;;;20.23;4.95;;;22.00;62.80;;;;;;10563286;27;20055;-35
2023/07/02 17:13:40;;;;;;;11.30;4.45;;;21.80;64.30;;;;;;10579896;27;20166;-36
2023/07/02 17:18:43;;;;;;;17.80;4.53;;;22.70;65.00;;;;;;10577793;27;20071;-33
2023/07/02 17:23:45;;;;;;;12.25;4.85;;;21.70;64.70;;;;;;10572621;27;20516;-36
2023/07/02 17:28:47;;;;;;;17.00;4.10;;;22.30;65.00;;;;;;10567305;27;20079;-34
2023/07/02 17:33:50;;;;;;;18.20;4.80;;;21.50;67.20;;;;;;10560320;28;20131;-35
2023/07/02 17:38:52;;;;;;;23.42;5.43;;;20.70;73.50;;;;;;10557729;27;20146;-34
2023/07/02 17:43:55;;;;;;;16.73;4.43;;;20.30;79.30;;;;;;10573521;27;20555;-36
2023/07/02 17:48:59;;;;;;;13.57;3.88;;;21.50;65.30;;;;;;10568012;27;20035;-33
2023/07/02 17:54:00;;;;;;;10.75;4.15;;;21.20;72.00;;;;;;10569113;27;20078;-36
2023/07/02 17:59:03;;;;;;;21.80;4.25;;;20.80;84.30;;;;;;10568016;28;20104;-29
2023/07/02 18:04:06;;;;;;;;;;;21.60;66.70;;;;;;10566566;27;20052;-34
2023/07/02 18:09:08;;;;;;;17.52;3.60;;;22.00;68.60;;;;;;10569735;27;19920;-34
2023/07/02 18:14:10;;;;;;;20.40;3.45;;;21.30;79.90;;;;;;10564784;27;20060;-32
2023/07/02 18:19:14;;;;;;;21.23;3.47;;;21.60;78.70;;;;;;10560385;27;20096;-35
2023/07/02 18:24:16;;;;;;;15.07;4.00;;;21.50;78.70;;;;;;10560602;27;20076;-36
2023/07/02 18:29:18;;;;;;;;;;;21.20;74.90;;;;;;10576223;27;20063;-36
2023/07/02 18:34:21;;;;;;;17.97;4.63;;;21.80;71.90;;;;;;10571741;27;19977;-36
2023/07/02 18:39:24;;;;;;;15.02;3.72;;;20.10;82.50;;;;;;10569193;27;20075;-35
2023/07/02 18:44:33;;;;;;;24.08;5.22;;;20.50;84.30;;;;;;10552291;27;20052;-34
2023/07/02 18:49:37;;;;;;;20.70;5.25;;;20.50;83.10;;;;;;10568108;27;20043;-33
2023/07/02 18:54:39;;;;;;;21.05;5.05;;;20.90;84.30;;;;;;10570591;27;20082;-34
2023/07/02 18:59:47;;;;;;;;;;;20.50;84.10;;;;;;10564743;27;20872;-36
2023/07/02 19:04:51;;;;;;;19.33;4.40;;;20.90;85.30;;;;;;10563643;28;19928;-36
2023/07/02 19:09:53;;;;;;;13.18;4.32;;;20.80;87.30;;;;;;10567029;28;20068;-33
2023/07/02 19:14:55;;;;;;;;;;;22.00;79.30;;;;;;10555969;28;20112;-34
2023/07/02 19:19:58;;;;;;;16.67;4.03;;;22.40;72.80;;;;;;10562344;28;19928;-35
2023/07/02 19:25:00;;;;;;;23.92;4.15;;;21.00;83.00;;;;;;10562662;28;20081;-36
2023/07/02 19:30:02;;;;;;;23.23;4.43;;;21.70;79.00;;;;;;10560032;28;20044;-36
2023/07/02 19:35:06;;;;;;;;;;;21.10;83.60;;;;;;10558035;28;20058;-34
2023/07/02 19:40:09;;;;;;;25.65;4.78;;;21.70;81.30;;;;;;10556527;28;19954;-35
2023/07/02 19:45:12;;;;;;;23.50;5.10;;;22.40;73.90;;;;;;10563667;28;20047;-34
2023/07/02 19:50:16;;;;;;;23.77;3.97;;;21.80;77.90;;;;;;10566362;28;20135;-35
2023/07/02 19:55:18;;;;;;;18.73;4.38;;;21.90;77.60;;;;;;10561913;27;20043;-39
2023/07/02 20:00:20;;;;;;;;;;;21.20;83.20;;;;;;10574698;27;20075;-40
2023/07/02 20:05:23;;;;;;;24.20;4.77;;;20.70;86.90;;;;;;10575345;27;20019;-36
2023/07/02 20:10:25;;;;;;;25.92;4.20;;;21.50;81.50;;;;;;10563708;27;20122;-36
2023/07/02 20:15:27;;;;;;;20.75;4.03;;;21.30;83.40;;;;;;10574460;27;20055;-34
2023/07/02 20:20:32;;;;;;;22.52;4.25;;;20.50;90.20;;;;;;10570030;28;20052;-34
2023/07/02 20:25:37;;;;;;;24.40;4.90;;;21.50;83.30;;;;;;10573161;27;20082;-34
2023/07/02 20:30:39;;;;;;;18.88;4.35;;;22.70;73.70;;;;;;10570587;28;20155;-34
2023/07/02 20:35:43;;;;;;;28.30;4.43;;;22.60;72.40;;;;;;10565558;27;20090;-34
2023/07/02 20:40:45;;;;;;;22.30;4.25;;;21.80;78.90;;;;;;10561423;27;20083;-34
2023/07/02 20:45:47;;;;;;;17.65;3.55;;;21.20;82.70;;;;;;10576117;27;20081;-33
2023/07/02 20:50:50;;;;;;;21.73;2.95;;;21.40;83.50;;;;;;10569980;28;20072;-33
2023/07/02 20:55:55;;;;;;;21.38;4.30;;;22.00;78.60;;;;;;10574634;27;20078;-37
2023/07/02 21:01:04;;;;;;;27.00;5.03;;;20.70;88.80;;;;;;10567013;27;20046;-34
2023/07/02 21:06:09;;;;;;;12.50;3.38;;;21.10;84.20;;;;;;10561051;28;20139;-35
2023/07/02 21:11:11;;;;;;;22.02;4.15;;;21.50;81.20;;;;;;10558979;27;20044;-32
2023/07/02 21:16:12;;;;;;;11.02;2.78;;;21.20;83.10;;;;;;10579586;27;20089;-34
2023/07/02 21:21:16;;;;;;;27.60;5.20;;;22.50;74.60;;;;;;10566420;27;20130;-34
2023/07/02 21:26:17;;;;;;;14.48;2.85;;;21.30;81.00;;;;;;10575333;28;20067;-34
2023/07/02 21:31:19;;;;;;;24.17;4.60;;;22.70;72.50;;;;;;10577318;27;20135;-34
2023/07/02 21:36:22;;;;;;;17.70;3.40;;;22.00;75.40;;;;;;10571429;27;20090;-33
2023/07/02 21:41:27;;;;;;;10.80;2.97;;;22.20;74.50;;;;;;10575372;27;20040;-36
2023/07/02 21:46:29;;;;;;;24.23;4.60;;;22.10;75.40;;;;;;10549196;27;20870;-34
2023/07/02 21:51:32;;;;;;;20.70;4.35;;;21.60;81.00;;;;;;10575156;27;20104;-34
2023/07/02 21:56:34;;;;;;;18.02;3.88;;;21.80;79.40;;;;;;10577322;27;20138;-35
2023/07/02 22:01:36;;;;;;;16.00;3.92;;;21.40;82.70;;;;;;10555713;27;20063;-34
2023/07/02 22:06:40;;;;;;;14.95;3.35;;;22.10;77.10;;;;;;10552607;27;20131;-34
2023/07/02 22:11:42;;;;;;;23.55;4.10;;;22.60;74.30;;;;;;10573453;27;20564;-34
2023/07/02 22:16:44;;;;;;;20.88;4.25;;;24.00;65.80;;;;;;10567766;27;20143;-35
2023/07/02 22:21:48;;;;;;;16.85;3.45;;;22.70;72.30;;;;;;10561363;27;20079;-35
2023/07/02 22:26:50;;;;;;;17.73;4.38;;;24.20;64.60;;;;;;10574857;27;20105;-36
2023/07/02 22:31:52;;;;;;;24.45;4.65;;;24.50;62.90;;;;;;10572714;27;20055;-33
2023/07/02 22:36:55;;;;;;;15.70;4.20;;;23.70;64.00;;;;;;10557481;27;20202;-34
2023/07/02 22:41:57;;;;;;;20.38;4.68;;;24.60;63.00;;;;;;10565563;27;20063;-32
2023/07/02 22:46:59;;;;;;;15.02;3.10;;;24.90;61.00;;;;;;10567174;27;20544;-33
2023/07/02 22:52:02;;;;;;;30.38;5.40;;;24.50;63.40;;;;;;10562960;27;20049;-34
2023/07/02 22:57:06;;;;;;;14.65;4.18;;;23.70;66.10;;;;;;10556582;28;20039;-34
2023/07/02 23:02:08;;;;;;;18.85;3.80;;;24.00;66.00;;;;;;10558367;27;20052;-34
2023/07/02 23:07:11;;;;;;;14.18;3.40;;;24.60;63.10;;;;;;10563945;27;20058;-36
2023/07/02 23:12:13;;;;;;;19.85;3.72;;;24.50;63.30;;;;;;10565710;27;20087;-38
2023/07/02 23:17:15;;;;;;;;;;;24.00;65.50;;;;;;10563672;28;20139;-33
2023/07/02 23:22:18;;;;;;;21.83;4.32;;;24.20;64.30;;;;;;10556942;28;20015;-34
2023/07/02 23:27:20;;;;;;;17.77;3.78;;;22.70;72.50;;;;;;10567238;27;20069;-33
2023/07/02 23:32:22;;;;;;;;;;;22.90;72.80;;;;;;10574467;27;20564;-36
2023/07/02 23:37:25;;;;;;;28.25;4.25;;;23.90;67.00;;;;;;10554349;27;20006;-34
2023/07/02 23:42:28;;;;;;;20.05;3.45;;;24.10;65.20;;;;;;10579473;27;20043;-33
2023/07/02 23:47:29;;;;;;;16.02;4.38;;;24.20;65.00;;;;;;10579760;27;20043;-31
2023/07/02 23:52:36;;;;;;;;;;;23.80;67.00;;;;;;10591532;27;20517;-32
2023/07/02 23:57:38;;;;;;;26.83;4.40;;;22.90;72.80;;;;;;10562362;27;20038;-35
